Aviation

Port-au-Prince

FTHA31 MTPP 221200
TAF MTPP 221200Z 2212/2312 14003KT 8000 FEW020 FM221700 28012KT 9999 SCT024 PROB30 TEMPO 2300/2305 4500 TSRA SCT026CB BKN040 BECMG 2306/2310 VRB02KT 9000 NSW FEW020 =


Cap-Haïtien

FTHA31 MTCH 221200
TAF MTCH 221200Z 2212/2312 VRB02KT 9000 FEW020 FM221500 04010KT 9999 FEW040 PROB30 TEMPO 2300/2305 TSRA SCT026CB BKN050 BECMG 2306/2310 VRB02KT 9000 NSW FEW020 =